Time;durP1;ratioP1;P1;durP2;ratioP2;P2;SDS_P1;SDS_P2;PMS_P1;PMS_P2;Temp;Humidity;BMP_temperature;BMP_pressure;BME280_temperature;BME280_humidity;BME280_pressure;Samples;Min_cycle;Max_cycle;Signal;HPM_P1;HPM_P2
2022/06/26 00:01:01;;;;;;;14.82;12.52;;;18.40;99.90;;;;;;5044416;28;20126;-30
2022/06/26 00:03:27;;;;;;;12.95;11.23;;;18.40;99.90;;;;;;5029481;28;20417;-30
2022/06/26 00:05:53;;;;;;;13.57;12.35;;;18.30;99.90;;;;;;5018700;28;20042;-30
2022/06/26 00:08:19;;;;;;;12.38;11.27;;;18.30;99.90;;;;;;5051087;28;20052;-30
2022/06/26 00:10:46;;;;;;;13.40;12.18;;;18.30;99.90;;;;;;5028668;28;20041;-30
2022/06/26 00:13:12;;;;;;;12.75;11.60;;;18.30;99.90;;;;;;5051079;28;20063;-30
2022/06/26 00:15:38;;;;;;;12.65;11.55;;;18.20;99.90;;;;;;5033247;28;20029;-30
2022/06/26 00:18:04;;;;;;;13.25;12.05;;;18.20;99.90;;;;;;5027560;28;20508;-31
2022/06/26 00:20:30;;;;;;;11.63;10.65;;;18.20;99.90;;;;;;5051279;28;20116;-30
2022/06/26 00:22:56;;;;;;;12.30;10.52;;;18.20;99.90;;;;;;5033121;28;20051;-30
2022/06/26 00:25:22;;;;;;;11.55;10.65;;;18.20;99.90;;;;;;5027004;28;20424;-31
2022/06/26 00:27:48;;;;;;;12.27;11.18;;;18.20;99.90;;;;;;4997411;28;20029;-30
2022/06/26 00:30:14;;;;;;;11.93;11.02;;;18.20;99.90;;;;;;5043476;28;20084;-30
2022/06/26 00:32:40;;;;;;;11.60;10.45;;;18.10;99.90;;;;;;5033628;28;20041;-30
2022/06/26 00:35:07;;;;;;;11.98;10.90;;;18.10;99.90;;;;;;5051464;28;20076;-31
2022/06/26 00:37:32;;;;;;;12.20;11.20;;;18.10;99.90;;;;;;5024900;28;20052;-30
2022/06/26 00:39:58;;;;;;;13.43;12.02;;;18.00;99.90;;;;;;5050640;28;20041;-31
2022/06/26 00:42:24;;;;;;;11.95;11.05;;;18.00;99.90;;;;;;5051179;28;20037;-30
2022/06/26 00:44:52;;;;;;;12.85;11.75;;;18.00;99.90;;;;;;5014006;28;20106;-30
2022/06/26 00:47:19;;;;;;;12.55;11.45;;;18.10;99.90;;;;;;5006316;28;20041;-30
2022/06/26 00:49:45;;;;;;;11.13;10.02;;;18.10;99.90;;;;;;5008767;28;20044;-30
2022/06/26 00:52:11;;;;;;;13.52;11.77;;;18.10;99.90;;;;;;5011530;28;20452;-30
2022/06/26 00:54:37;;;;;;;12.48;11.38;;;18.10;99.90;;;;;;5013627;28;20486;-31
2022/06/26 00:57:04;;;;;;;12.50;11.48;;;18.10;99.90;;;;;;5023458;28;20041;-30
2022/06/26 00:59:31;;;;;;;13.52;12.23;;;18.20;99.90;;;;;;5050531;28;20037;-30
2022/06/26 01:01:57;;;;;;;13.20;11.90;;;18.20;99.90;;;;;;5048578;28;20037;-30
2022/06/26 01:04:23;;;;;;;13.90;12.70;;;18.20;99.90;;;;;;5047633;28;20448;-29
2022/06/26 01:06:50;;;;;;;13.05;11.75;;;18.20;99.90;;;;;;5010973;28;20091;-30
2022/06/26 01:09:17;;;;;;;13.88;12.57;;;18.20;99.90;;;;;;5046502;28;20120;-30
2022/06/26 01:11:44;;;;;;;14.32;12.95;;;18.20;99.90;;;;;;5050713;28;20112;-30
2022/06/26 01:14:13;;;;;;;15.60;14.20;;;18.20;99.90;;;;;;5012719;28;20041;-30
2022/06/26 01:16:39;;;;;;;15.15;13.85;;;18.30;99.90;;;;;;5029235;28;20060;-30
2022/06/26 01:19:06;;;;;;;16.05;14.52;;;18.40;99.90;;;;;;5009409;28;20034;-30
2022/06/26 01:21:33;;;;;;;15.55;14.10;;;18.40;99.90;;;;;;5048139;28;20029;-35
2022/06/26 01:23:59;;;;;;;15.13;13.73;;;18.50;99.90;;;;;;5020697;28;20041;-30
2022/06/26 01:26:26;;;;;;;16.80;15.20;;;18.60;99.90;;;;;;5015387;28;20116;-30
2022/06/26 01:28:52;;;;;;;16.05;14.70;;;18.70;99.90;;;;;;5033137;28;20045;-30
2022/06/26 01:31:19;;;;;;;16.88;15.27;;;18.80;99.90;;;;;;5048867;28;20044;-30
2022/06/26 01:33:46;;;;;;;16.13;14.52;;;18.80;99.90;;;;;;5043171;28;20071;-30
2022/06/26 01:36:13;;;;;;;15.93;14.52;;;18.90;99.90;;;;;;5032780;28;20420;-27
2022/06/26 01:38:39;;;;;;;16.08;14.73;;;19.00;99.90;;;;;;5033331;28;20044;-27
2022/06/26 01:41:05;;;;;;;15.40;14.05;;;19.00;99.90;;;;;;5007992;28;20042;-30
2022/06/26 01:43:33;;;;;;;16.90;15.40;;;19.10;99.90;;;;;;5047166;28;20029;-30
2022/06/26 01:45:59;;;;;;;14.98;13.65;;;19.00;99.90;;;;;;5032942;28;20063;-30
2022/06/26 01:48:26;;;;;;;16.00;14.68;;;19.10;99.90;;;;;;5028219;28;20033;-30
2022/06/26 01:50:53;;;;;;;16.83;15.13;;;19.10;99.90;;;;;;5050975;28;20047;-30
2022/06/26 01:53:19;;;;;;;16.52;15.13;;;19.10;99.90;;;;;;5048473;28;20069;-30
2022/06/26 01:55:45;;;;;;;17.50;15.90;;;19.10;99.90;;;;;;5028436;28;20272;-31
2022/06/26 01:58:11;;;;;;;17.40;15.60;;;19.10;99.90;;;;;;5035024;28;20562;-30
2022/06/26 02:00:40;;;;;;;19.35;17.35;;;19.10;99.90;;;;;;5050295;28;20051;-30
2022/06/26 02:03:07;;;;;;;18.95;16.83;;;19.10;99.90;;;;;;5025179;28;20042;-30
2022/06/26 02:05:33;;;;;;;21.10;18.42;;;19.10;99.90;;;;;;5029757;28;20033;-30
2022/06/26 02:07:59;;;;;;;21.58;19.40;;;19.00;99.90;;;;;;5011203;28;20112;-30
2022/06/26 02:15:58;;;;;;;22.70;20.38;;;18.90;99.90;;;;;;5049357;28;20535;-30
2022/06/26 02:18:25;;;;;;;24.33;21.15;;;18.90;99.90;;;;;;5030016;28;20048;-30
2022/06/26 02:20:51;;;;;;;21.10;18.83;;;18.90;99.90;;;;;;5032420;28;20404;-30
2022/06/26 02:23:18;;;;;;;22.52;20.52;;;18.90;99.90;;;;;;5020943;28;20067;-30
2022/06/26 02:25:44;;;;;;;22.70;20.38;;;18.80;99.90;;;;;;5049659;28;20064;-30
2022/06/26 02:28:10;;;;;;;22.08;19.17;;;18.80;99.90;;;;;;5035200;28;20033;-30
2022/06/26 02:30:42;;;;;;;20.90;18.95;;;18.80;99.90;;;;;;4990897;28;20037;-30
2022/06/26 02:33:08;;;;;;;21.98;19.50;;;18.80;99.90;;;;;;4993678;28;20083;-27
2022/06/26 02:35:34;;;;;;;21.33;19.15;;;18.80;99.90;;;;;;5020043;28;20064;-27
2022/06/26 02:38:00;;;;;;;20.13;18.40;;;18.70;99.90;;;;;;5036188;28;20057;-27
2022/06/26 02:40:27;;;;;;;19.98;18.05;;;18.70;99.90;;;;;;5054364;28;20037;-27
2022/06/26 02:42:54;;;;;;;18.95;17.23;;;18.60;99.90;;;;;;5048991;28;20033;-27
2022/06/26 02:45:21;;;;;;;18.83;16.88;;;18.60;99.90;;;;;;5033862;28;20048;-27
2022/06/26 02:47:47;;;;;;;18.48;16.75;;;18.50;99.90;;;;;;5041803;28;20358;-30
2022/06/26 02:50:14;;;;;;;17.30;15.70;;;18.40;99.90;;;;;;5052787;28;20041;-30
2022/06/26 02:52:40;;;;;;;18.23;16.35;;;18.40;99.90;;;;;;5050792;28;20032;-30
2022/06/26 02:55:06;;;;;;;18.50;16.27;;;18.30;99.90;;;;;;5053090;28;20037;-30
2022/06/26 02:57:32;;;;;;;17.27;15.50;;;18.30;99.90;;;;;;5032499;28;20044;-30
2022/06/26 02:59:58;;;;;;;17.95;16.25;;;18.20;99.90;;;;;;5035139;28;20041;-30
2022/06/26 03:02:24;;;;;;;17.52;15.93;;;18.20;99.90;;;;;;5052476;28;20037;-30
2022/06/26 03:04:51;;;;;;;16.52;14.98;;;18.20;99.90;;;;;;5039293;28;20036;-30
2022/06/26 03:07:18;;;;;;;17.40;15.68;;;18.10;99.90;;;;;;5020986;28;20041;-30
2022/06/26 03:09:43;;;;;;;14.48;13.13;;;18.00;99.90;;;;;;5035036;28;20072;-30
2022/06/26 03:12:09;;;;;;;16.55;15.05;;;18.00;99.90;;;;;;5049487;28;20072;-30
2022/06/26 03:14:35;;;;;;;16.02;14.45;;;17.90;99.90;;;;;;5046746;28;20025;-30
2022/06/26 03:17:01;;;;;;;15.45;13.98;;;17.90;99.90;;;;;;5035094;28;20107;-30
2022/06/26 03:19:27;;;;;;;14.93;13.38;;;17.90;99.90;;;;;;5033271;28;20049;-30
2022/06/26 03:21:53;;;;;;;14.73;13.30;;;17.80;99.90;;;;;;5018435;28;20044;-30
2022/06/26 03:24:20;;;;;;;13.00;11.70;;;17.80;99.90;;;;;;5052439;28;20497;-30
2022/06/26 03:26:46;;;;;;;16.13;12.20;;;17.80;99.90;;;;;;5052463;28;20047;-30
2022/06/26 03:29:13;;;;;;;13.20;11.80;;;17.70;99.90;;;;;;5030507;28;20044;-30
2022/06/26 03:31:39;;;;;;;13.00;11.80;;;17.70;99.90;;;;;;5012712;28;20044;-30
2022/06/26 03:34:05;;;;;;;13.43;12.10;;;17.70;99.90;;;;;;5052125;28;20106;-30
2022/06/26 03:36:33;;;;;;;14.18;11.35;;;17.60;99.90;;;;;;5026421;28;20033;-30
2022/06/26 03:38:59;;;;;;;12.90;11.15;;;17.60;99.90;;;;;;5034317;28;20044;-30
2022/06/26 03:41:26;;;;;;;12.27;11.18;;;17.60;99.90;;;;;;5001582;28;20045;-30
2022/06/26 03:43:52;;;;;;;11.75;10.48;;;17.50;99.90;;;;;;5052940;28;20108;-30
2022/06/26 03:46:18;;;;;;;12.10;10.90;;;17.50;99.90;;;;;;5013644;28;20116;-30
2022/06/26 03:48:43;;;;;;;12.15;10.95;;;17.50;99.90;;;;;;5029040;28;20053;-30
2022/06/26 03:51:09;;;;;;;11.43;10.43;;;17.40;99.90;;;;;;5050208;28;20120;-30
2022/06/26 03:53:36;;;;;;;11.35;10.25;;;17.40;99.90;;;;;;5029782;28;20492;-30
2022/06/26 03:56:03;;;;;;;11.85;10.60;;;17.40;99.90;;;;;;5028211;28;20565;-30
2022/06/26 03:58:29;;;;;;;12.25;11.05;;;17.40;99.90;;;;;;5047460;28;20090;-30
2022/06/26 04:00:54;;;;;;;10.68;9.65;;;17.40;99.90;;;;;;5003826;28;20041;-30
2022/06/26 04:03:21;;;;;;;11.18;9.88;;;17.30;99.90;;;;;;5044395;28;20047;-30
2022/06/26 04:05:47;;;;;;;11.15;10.00;;;17.30;99.90;;;;;;5032050;28;20499;-29
2022/06/26 04:08:13;;;;;;;9.95;8.95;;;17.30;99.90;;;;;;5048377;28;20048;-29
2022/06/26 04:10:39;;;;;;;10.82;9.73;;;17.20;99.90;;;;;;5032910;28;20094;-29
2022/06/26 04:13:10;;;;;;;9.90;8.95;;;17.20;99.90;;;;;;5051338;28;20041;-29
2022/06/26 04:15:37;;;;;;;9.18;8.38;;;17.20;99.90;;;;;;5051165;28;20072;-29
2022/06/26 04:18:04;;;;;;;9.23;8.32;;;17.20;99.90;;;;;;5033178;28;20159;-29
2022/06/26 04:20:30;;;;;;;8.90;8.00;;;17.20;99.90;;;;;;5024855;28;20045;-29
2022/06/26 04:22:59;;;;;;;8.45;6.70;;;17.20;99.90;;;;;;5032146;28;20747;-29
2022/06/26 04:25:26;;;;;;;7.72;7.07;;;17.20;99.90;;;;;;5052114;28;20051;-29
2022/06/26 04:27:52;;;;;;;7.90;6.65;;;17.20;99.90;;;;;;5025464;28;20523;-29
2022/06/26 04:30:18;;;;;;;7.35;6.65;;;17.20;99.90;;;;;;5033091;28;20048;-29
2022/06/26 04:32:44;;;;;;;7.20;6.50;;;17.20;99.90;;;;;;5033432;28;20064;-29
2022/06/26 04:35:10;;;;;;;7.82;7.13;;;17.20;99.90;;;;;;5039876;28;20087;-29
2022/06/26 04:37:40;;;;;;;8.23;7.40;;;17.20;99.90;;;;;;5032635;28;20052;-29
2022/06/26 04:40:09;;;;;;;10.13;8.00;;;17.20;99.90;;;;;;5046360;28;20048;-29
2022/06/26 04:42:35;;;;;;;8.60;7.72;;;17.20;99.90;;;;;;5043444;28;20037;-29
2022/06/26 04:45:01;;;;;;;10.18;9.20;;;17.20;99.90;;;;;;5033067;28;20029;-29
2022/06/26 04:47:27;;;;;;;8.77;7.82;;;17.30;99.90;;;;;;5030294;28;20127;-29
2022/06/26 04:49:53;;;;;;;9.63;8.65;;;17.30;99.90;;;;;;5039289;28;20128;-29
2022/06/26 04:52:19;;;;;;;8.98;7.95;;;17.30;99.90;;;;;;5031669;28;20044;-30
2022/06/26 04:54:45;;;;;;;8.93;7.35;;;17.40;99.90;;;;;;5032430;28;20040;-30
2022/06/26 04:57:11;;;;;;;8.63;7.72;;;17.40;99.90;;;;;;5020386;28;20045;-30
2022/06/26 04:59:37;;;;;;;8.07;7.10;;;17.40;99.90;;;;;;5046744;28;20048;-30
2022/06/26 05:02:05;;;;;;;8.18;7.03;;;17.50;99.90;;;;;;5047821;28;20037;-29
2022/06/26 05:04:30;;;;;;;7.80;7.10;;;17.60;99.90;;;;;;5050702;28;20275;-29
2022/06/26 05:06:56;;;;;;;7.95;7.15;;;17.60;99.90;;;;;;5050785;28;20448;-29
2022/06/26 05:09:23;;;;;;;7.65;6.95;;;17.70;99.90;;;;;;5008137;28;20041;-29
2022/06/26 05:11:50;;;;;;;8.57;7.50;;;17.80;99.90;;;;;;5013010;28;20032;-29
2022/06/26 05:14:16;;;;;;;7.97;7.22;;;18.00;99.90;;;;;;5050237;28;20512;-29
2022/06/26 05:16:42;;;;;;;8.15;7.40;;;18.10;99.90;;;;;;5029973;28;20037;-29
2022/06/26 05:19:08;;;;;;;7.57;6.97;;;18.20;99.90;;;;;;5015518;28;20099;-29
2022/06/26 05:21:34;;;;;;;7.40;6.80;;;18.40;99.90;;;;;;5040452;28;20091;-30
2022/06/26 05:23:59;;;;;;;6.93;6.32;;;18.50;99.90;;;;;;5041670;28;20388;-30
2022/06/26 05:26:25;;;;;;;7.55;6.30;;;18.50;99.90;;;;;;5043164;28;20032;-30
2022/06/26 05:28:51;;;;;;;6.10;5.60;;;18.60;99.90;;;;;;5045794;28;20069;-30
2022/06/26 05:31:17;;;;;;;7.63;6.93;;;18.60;99.90;;;;;;5024693;28;20080;-30
2022/06/26 05:33:43;;;;;;;6.70;6.10;;;18.60;99.90;;;;;;5050220;28;20032;-30
2022/06/26 05:36:09;;;;;;;7.43;6.32;;;18.50;99.90;;;;;;5024061;28;20121;-30
2022/06/26 05:38:36;;;;;;;6.95;6.25;;;18.60;99.90;;;;;;5024644;28;20072;-30
2022/06/26 05:41:02;;;;;;;7.28;6.68;;;18.60;99.90;;;;;;5035684;28;20049;-30
2022/06/26 05:43:28;;;;;;;6.88;6.32;;;18.60;99.90;;;;;;5044144;28;20029;-30
2022/06/26 05:45:54;;;;;;;8.00;7.30;;;18.70;99.90;;;;;;5048289;28;20063;-30
2022/06/26 05:48:19;;;;;;;8.38;7.57;;;18.80;99.90;;;;;;5048334;28;20033;-30
2022/06/26 05:50:45;;;;;;;9.00;8.27;;;18.80;99.90;;;;;;5042768;28;20044;-30
2022/06/26 05:53:11;;;;;;;9.65;8.75;;;18.80;99.90;;;;;;5049498;28;20037;-30
2022/06/26 05:55:38;;;;;;;9.82;8.93;;;18.90;99.90;;;;;;5032847;28;20044;-30
2022/06/26 05:58:06;;;;;;;11.65;10.45;;;18.90;99.90;;;;;;5049645;28;20174;-30
2022/06/26 06:00:33;;;;;;;11.88;10.77;;;18.90;99.90;;;;;;5030107;28;20043;-30
2022/06/26 06:02:58;;;;;;;11.68;10.48;;;18.90;99.90;;;;;;5049877;28;20083;-30
2022/06/26 06:05:27;;;;;;;11.60;10.63;;;19.00;99.90;;;;;;5031980;28;20064;-30
2022/06/26 06:07:54;;;;;;;13.70;12.43;;;19.10;99.90;;;;;;5049259;28;20036;-30
2022/06/26 06:10:23;;;;;;;13.15;11.95;;;19.20;99.90;;;;;;5047183;28;20037;-30
2022/06/26 06:12:50;;;;;;;14.18;12.88;;;19.20;99.90;;;;;;5028038;28;20037;-30
2022/06/26 06:15:16;;;;;;;14.70;13.25;;;19.30;99.90;;;;;;5047413;28;20040;-30
2022/06/26 06:17:42;;;;;;;15.20;13.90;;;19.30;99.90;;;;;;5028404;28;20041;-30
2022/06/26 06:20:10;;;;;;;15.52;14.13;;;19.40;99.90;;;;;;5049417;28;20041;-30
2022/06/26 06:22:40;;;;;;;16.15;14.70;;;19.40;99.90;;;;;;5025666;28;20037;-30
2022/06/26 06:25:07;;;;;;;16.98;15.27;;;19.40;99.90;;;;;;5028656;28;20041;-30
2022/06/26 06:27:33;;;;;;;16.55;14.85;;;19.40;99.90;;;;;;5031489;28;20036;-30
2022/06/26 06:29:59;;;;;;;15.90;14.30;;;19.40;99.90;;;;;;5041373;28;20037;-30
2022/06/26 06:32:25;;;;;;;17.55;16.05;;;19.40;99.90;;;;;;5048979;28;20197;-30
2022/06/26 06:34:50;;;;;;;17.55;15.95;;;19.40;99.90;;;;;;5044383;28;20124;-30
2022/06/26 06:37:16;;;;;;;17.23;15.52;;;19.50;99.90;;;;;;5030611;28;20080;-30
2022/06/26 06:39:42;;;;;;;17.17;15.57;;;19.50;99.90;;;;;;5049526;28;20124;-29
2022/06/26 06:42:08;;;;;;;15.82;14.43;;;19.60;99.90;;;;;;5026691;28;20076;-30
2022/06/26 06:44:34;;;;;;;17.38;15.77;;;19.60;99.90;;;;;;5053251;28;20439;-30
2022/06/26 06:46:59;;;;;;;15.52;14.13;;;19.60;99.90;;;;;;5053686;28;20396;-30
2022/06/26 06:49:26;;;;;;;16.92;15.32;;;19.60;99.90;;;;;;5047135;28;20036;-30
2022/06/26 06:51:52;;;;;;;17.58;15.77;;;19.50;99.90;;;;;;5050967;28;20044;-30
2022/06/26 06:54:18;;;;;;;16.13;14.63;;;19.30;99.90;;;;;;5053225;28;20041;-30
2022/06/26 06:56:44;;;;;;;17.08;15.35;;;19.20;99.90;;;;;;5052902;28;20033;-30
2022/06/26 06:59:10;;;;;;;17.88;16.02;;;19.20;99.90;;;;;;5052452;28;20032;-29
2022/06/26 07:01:36;;;;;;;16.77;15.25;;;19.10;99.90;;;;;;5040948;28;20484;-30
2022/06/26 07:04:02;;;;;;;18.00;16.27;;;19.30;99.90;;;;;;5044263;28;20029;-30
2022/06/26 07:06:28;;;;;;;18.15;16.35;;;19.30;99.90;;;;;;5047598;28;20039;-31
2022/06/26 07:08:54;;;;;;;16.80;15.20;;;19.30;99.90;;;;;;5048346;28;20029;-30
2022/06/26 07:11:19;;;;;;;17.13;15.60;;;19.30;99.90;;;;;;5025795;28;20449;-30
2022/06/26 07:13:45;;;;;;;18.42;16.75;;;19.30;99.90;;;;;;5051984;28;20508;-30
2022/06/26 07:16:11;;;;;;;17.77;16.15;;;19.30;99.90;;;;;;5033315;28;20044;-30
2022/06/26 07:18:37;;;;;;;18.33;16.60;;;19.40;99.90;;;;;;5045323;28;20029;-30
2022/06/26 07:21:04;;;;;;;18.83;17.00;;;19.50;99.90;;;;;;5010865;28;20117;-30
2022/06/26 07:23:30;;;;;;;17.58;15.88;;;19.80;99.90;;;;;;5045265;28;20095;-30
2022/06/26 07:25:58;;;;;;;18.00;16.25;;;20.00;99.90;;;;;;5028047;28;20038;-30
2022/06/26 07:28:24;;;;;;;17.25;15.73;;;20.10;99.90;;;;;;5041423;28;20121;-30
2022/06/26 07:30:50;;;;;;;18.02;16.35;;;20.20;99.90;;;;;;5038976;28;20464;-30
2022/06/26 07:36:00;;;;;;;20.70;18.70;;;20.30;99.90;;;;;;5027808;28;20443;-31
2022/06/26 07:38:26;;;;;;;21.70;19.80;;;20.20;99.90;;;;;;5035082;28;20041;-30
2022/06/26 07:40:52;;;;;;;22.90;20.90;;;20.20;99.90;;;;;;5045618;28;20048;-30
2022/06/26 07:43:18;;;;;;;22.05;20.10;;;20.30;99.90;;;;;;5049135;28;20037;-30
2022/06/26 07:45:43;;;;;;;21.52;19.63;;;20.40;99.90;;;;;;5041400;28;20033;-29
2022/06/26 07:48:09;;;;;;;21.90;20.00;;;20.50;99.90;;;;;;5044097;28;20059;-30
2022/06/26 07:50:35;;;;;;;22.08;19.92;;;20.70;99.90;;;;;;5027805;28;20075;-30
2022/06/26 07:53:01;;;;;;;21.55;19.60;;;20.70;99.90;;;;;;5047506;28;20037;-30
2022/06/26 07:55:27;;;;;;;21.75;19.75;;;20.90;99.90;;;;;;5043869;28;20041;-30
2022/06/26 07:57:53;;;;;;;19.80;18.10;;;21.20;99.90;;;;;;5047027;28;20056;-30
2022/06/26 08:00:18;;;;;;;20.10;18.40;;;21.30;99.90;;;;;;5044551;28;20049;-31
2022/06/26 08:02:44;;;;;;;19.55;17.92;;;21.30;99.90;;;;;;5031732;28;20404;-31
2022/06/26 08:05:11;;;;;;;17.95;16.45;;;21.40;99.90;;;;;;5042747;28;20120;-31
2022/06/26 08:07:36;;;;;;;18.42;16.83;;;21.80;99.90;;;;;;5048170;28;20037;-30
2022/06/26 08:10:03;;;;;;;18.15;16.45;;;22.10;99.90;;;;;;5007179;28;20090;-30
2022/06/26 08:12:30;;;;;;;17.33;15.93;;;22.30;99.90;;;;;;5040386;28;20781;-30
2022/06/26 08:14:55;;;;;;;17.42;15.75;;;22.40;99.90;;;;;;5012889;28;20072;-30
2022/06/26 08:17:21;;;;;;;16.48;15.00;;;22.20;99.90;;;;;;5041481;28;20532;-30
2022/06/26 08:19:48;;;;;;;16.20;14.63;;;21.90;99.90;;;;;;5048584;28;20037;-30
2022/06/26 08:22:14;;;;;;;14.13;12.98;;;21.60;99.90;;;;;;5013033;28;20453;-30
2022/06/26 08:24:41;;;;;;;14.75;13.45;;;21.50;99.90;;;;;;5043217;28;20043;-30
2022/06/26 08:27:08;;;;;;;15.20;13.30;;;21.60;99.90;;;;;;5046368;28;20042;-31
2022/06/26 08:29:35;;;;;;;12.57;11.57;;;21.80;99.90;;;;;;5043521;28;20064;-31
2022/06/26 08:32:02;;;;;;;11.45;10.43;;;21.90;99.90;;;;;;5047134;28;20541;-31
2022/06/26 08:34:28;;;;;;;13.05;11.85;;;21.90;99.90;;;;;;5032808;28;20033;-31
2022/06/26 08:36:54;;;;;;;12.68;11.40;;;22.00;99.90;;;;;;5051479;28;20468;-30
2022/06/26 08:39:20;;;;;;;9.90;8.93;;;21.70;99.90;;;;;;5012848;28;20056;-30
2022/06/26 08:41:47;;;;;;;9.25;8.35;;;21.90;99.90;;;;;;5045643;28;20163;-28
2022/06/26 08:44:14;;;;;;;9.20;8.30;;;22.20;99.90;;;;;;5042659;28;20068;-28
2022/06/26 08:46:42;;;;;;;10.07;9.07;;;22.40;99.90;;;;;;5052382;28;20037;-28
2022/06/26 08:49:15;;;;;;;11.80;10.73;;;22.70;99.90;;;;;;5050794;28;20175;-29
2022/06/26 08:51:44;;;;;;;11.15;10.05;;;22.90;99.90;;;;;;5041778;28;20102;-29
2022/06/26 08:54:12;;;;;;;9.55;8.63;;;22.80;99.90;;;;;;5052304;28;20434;-28
2022/06/26 08:56:43;;;;;;;8.95;8.05;;;22.60;99.90;;;;;;5052041;28;20167;-28
2022/06/26 08:59:11;;;;;;;7.70;7.05;;;22.70;99.90;;;;;;5034280;28;20102;-28
2022/06/26 09:01:38;;;;;;;6.60;5.85;;;23.00;99.90;;;;;;5051562;28;20044;-28
2022/06/26 09:04:06;;;;;;;7.10;6.50;;;23.50;99.90;;;;;;5052461;28;20047;-28
2022/06/26 09:06:36;;;;;;;6.75;6.15;;;23.80;99.90;;;;;;5051502;28;20073;-28
2022/06/26 09:09:17;;;;;;;4.70;4.30;;;23.80;99.90;;;;;;5051768;28;20033;-29
2022/06/26 09:11:44;;;;;;;4.47;4.10;;;23.70;99.90;;;;;;5051798;28;20057;-28
2022/06/26 09:14:12;;;;;;;5.72;3.97;;;23.40;99.90;;;;;;5052144;28;20029;-27
2022/06/26 09:16:41;;;;;;;4.78;4.18;;;23.60;99.90;;;;;;5051735;28;20045;-27
2022/06/26 09:19:12;;;;;;;7.10;4.55;;;23.80;99.90;;;;;;5052434;28;20080;-26
2022/06/26 09:21:38;;;;;;;4.93;4.53;;;24.20;99.90;;;;;;5051903;28;20043;-27
2022/06/26 09:24:09;;;;;;;5.35;4.80;;;24.50;99.90;;;;;;5051964;28;20036;-28
2022/06/26 09:26:35;;;;;;;5.65;4.15;;;24.70;99.90;;;;;;5051616;28;20041;-28
2022/06/26 09:29:15;;;;;;;5.07;4.55;;;24.90;99.90;;;;;;5033869;28;20040;-28
2022/06/26 09:31:42;;;;;;;5.72;5.00;;;25.00;94.40;;;;;;5045462;28;20504;-30
2022/06/26 09:34:24;;;;;;;5.03;4.28;;;25.00;99.90;;;;;;5051900;28;20047;-28
2022/06/26 09:37:01;;;;;;;5.97;5.47;;;24.80;97.40;;;;;;5052509;28;20037;-27
2022/06/26 09:39:30;;;;;;;6.40;4.72;;;25.00;99.50;;;;;;5042228;28;20052;-27
2022/06/26 09:41:56;;;;;;;4.88;4.47;;;25.20;98.60;;;;;;5042378;28;20037;-27
2022/06/26 09:44:23;;;;;;;4.28;3.88;;;25.30;98.10;;;;;;5053686;28;20506;-29
2022/06/26 09:46:50;;;;;;;3.78;3.42;;;25.30;96.20;;;;;;5048007;28;20033;-28
2022/06/26 09:49:17;;;;;;;3.60;3.30;;;25.50;96.30;;;;;;5051633;28;20037;-28
2022/06/26 09:51:43;;;;;;;4.18;3.78;;;25.80;96.70;;;;;;5000568;28;20513;-29
2022/06/26 09:54:10;;;;;;;3.88;3.50;;;25.80;96.00;;;;;;5050704;28;20040;-28
2022/06/26 09:56:36;;;;;;;3.75;3.45;;;25.60;92.60;;;;;;5039262;28;20129;-27
2022/06/26 09:59:02;;;;;;;4.20;3.35;;;25.60;93.70;;;;;;5025731;28;20081;-28
2022/06/26 10:07:02;;;;;;;3.63;3.22;;;25.60;94.10;;;;;;5049974;28;20048;-28
2022/06/26 10:09:29;;;;;;;4.20;3.63;;;25.70;92.10;;;;;;5032814;28;20040;-28
2022/06/26 10:12:01;;;;;;;4.95;4.50;;;25.70;93.60;;;;;;5033129;28;20400;-28
2022/06/26 10:14:38;;;;;;;4.70;4.20;;;25.70;90.30;;;;;;5041682;28;20045;-28
2022/06/26 10:17:10;;;;;;;4.57;4.05;;;25.70;82.70;;;;;;5051743;28;20659;-28
2022/06/26 10:19:52;;;;;;;4.78;3.78;;;25.80;90.30;;;;;;5033224;28;20041;-28
2022/06/26 10:22:19;;;;;;;4.47;3.95;;;25.90;91.40;;;;;;5041897;28;20617;-28
2022/06/26 10:25:03;;;;;;;4.60;4.10;;;25.90;91.40;;;;;;5054032;28;20122;-28
2022/06/26 10:27:31;;;;;;;3.10;2.90;;;25.70;90.80;;;;;;5054641;28;20498;-28
2022/06/26 10:30:18;;;;;;;2.85;2.60;;;25.40;92.20;;;;;;5035695;28;20037;-28
2022/06/26 10:32:45;;;;;;;3.90;2.42;;;25.40;90.60;;;;;;5034622;28;20049;-28
2022/06/26 10:35:12;;;;;;;4.75;2.65;;;25.50;89.30;;;;;;5033111;28;20092;-28
2022/06/26 10:37:43;;;;;;;2.83;2.53;;;25.30;85.50;;;;;;5021279;28;20029;-28
2022/06/26 10:43:15;;;;;;;2.67;2.47;;;24.80;76.40;;;;;;5038894;28;20080;-28
2022/06/26 10:45:41;;;;;;;4.32;3.00;;;24.30;83.60;;;;;;5036003;28;20067;-28
2022/06/26 10:48:17;;;;;;;3.65;3.05;;;24.10;91.20;;;;;;5036680;28;20037;-28
2022/06/26 10:50:45;;;;;;;4.00;3.05;;;24.10;91.50;;;;;;5036388;28;20079;-28
2022/06/26 10:53:23;;;;;;;3.03;2.80;;;23.90;90.40;;;;;;5031651;28;20509;-28
2022/06/26 10:55:55;;;;;;;3.70;3.10;;;24.10;92.20;;;;;;5054306;28;20041;-28
2022/06/26 10:58:27;;;;;;;4.57;2.95;;;24.20;93.60;;;;;;5053555;28;20041;-28
2022/06/26 11:00:58;;;;;;;4.72;2.85;;;24.20;91.90;;;;;;5048616;28;20072;-28
2022/06/26 11:03:25;;;;;;;3.30;3.00;;;24.10;92.90;;;;;;5035446;28;20079;-28
2022/06/26 11:06:05;;;;;;;3.35;3.05;;;24.30;92.90;;;;;;5019216;28;20048;-28
2022/06/26 11:08:36;;;;;;;3.55;3.17;;;24.70;93.40;;;;;;5054290;28;20091;-28
2022/06/26 11:11:06;;;;;;;5.35;3.35;;;24.90;91.50;;;;;;5019300;28;20036;-28
2022/06/26 11:13:33;;;;;;;4.32;3.13;;;25.30;93.10;;;;;;5035805;28;20099;-28
2022/06/26 11:16:00;;;;;;;3.00;2.70;;;25.70;91.70;;;;;;5048644;28;20053;-28
2022/06/26 11:18:26;;;;;;;2.90;2.60;;;26.10;89.20;;;;;;5050514;28;20098;-28
2022/06/26 11:20:54;;;;;;;3.45;2.90;;;26.00;83.80;;;;;;5053491;28;20153;-28
2022/06/26 11:23:32;;;;;;;3.83;3.38;;;26.20;84.60;;;;;;5053186;28;20041;-28
2022/06/26 11:26:08;;;;;;;5.18;3.42;;;26.20;73.50;;;;;;5053746;28;20041;-29
2022/06/26 11:28:43;;;;;;;5.22;3.25;;;26.20;72.80;;;;;;5052642;28;20514;-28
2022/06/26 11:31:21;;;;;;;4.07;2.80;;;26.30;72.00;;;;;;5044604;28;20108;-28
2022/06/26 11:33:52;;;;;;;4.30;2.85;;;26.60;72.60;;;;;;5035918;28;20083;-30
2022/06/26 11:36:22;;;;;;;4.00;3.20;;;26.90;75.90;;;;;;5031771;28;20064;-29
2022/06/26 11:38:54;;;;;;;6.13;3.05;;;27.40;79.40;;;;;;5050080;28;20064;-28
2022/06/26 11:41:21;;;;;;;4.25;2.75;;;27.50;70.50;;;;;;5056306;28;20064;-28
2022/06/26 11:43:50;;;;;;;4.45;3.00;;;27.50;69.70;;;;;;5052408;28;20044;-29
2022/06/26 11:46:32;;;;;;;5.97;3.67;;;27.50;65.10;;;;;;5058449;28;20538;-29
2022/06/26 11:49:25;;;;;;;4.45;3.10;;;27.50;58.80;;;;;;5046003;28;20084;-29
2022/06/26 11:51:57;;;;;;;5.93;3.13;;;27.50;63.20;;;;;;5043515;28;20075;-29
2022/06/26 11:54:25;;;;;;;3.67;2.80;;;27.30;59.00;;;;;;5040910;28;20053;-28
2022/06/26 11:56:51;;;;;;;4.07;2.88;;;27.10;60.10;;;;;;5052213;28;20099;-29
2022/06/26 11:59:17;;;;;;;5.45;3.28;;;27.00;66.40;;;;;;5049478;28;20045;-28
2022/06/26 12:01:43;;;;;;;3.70;3.35;;;27.00;69.70;;;;;;5037274;28;20037;-28
2022/06/26 12:04:10;;;;;;;3.28;2.97;;;26.90;64.60;;;;;;5051124;28;20518;-28
2022/06/26 12:06:39;;;;;;;3.78;3.40;;;26.90;64.40;;;;;;5018408;28;20033;-28
2022/06/26 12:09:16;;;;;;;4.30;3.17;;;26.60;64.40;;;;;;5061346;28;20090;-28
2022/06/26 12:11:47;;;;;;;5.70;3.05;;;26.60;61.30;;;;;;5033676;28;20044;-29
2022/06/26 12:14:17;;;;;;;6.07;2.88;;;26.50;65.10;;;;;;5025090;28;20060;-28
2022/06/26 12:16:46;;;;;;;3.72;3.20;;;26.50;67.60;;;;;;5045961;28;20037;-28
2022/06/26 12:19:13;;;;;;;3.67;3.10;;;26.40;64.10;;;;;;5035039;28;20045;-28
2022/06/26 12:21:38;;;;;;;4.45;3.00;;;26.10;64.60;;;;;;5038589;28;20485;-28
2022/06/26 12:24:12;;;;;;;4.50;3.17;;;26.20;69.00;;;;;;5053017;28;20048;-28
2022/06/26 12:26:38;;;;;;;3.78;3.47;;;26.40;67.50;;;;;;5052803;28;20064;-28
2022/06/26 12:29:16;;;;;;;2.92;2.67;;;26.30;66.90;;;;;;5052676;28;20352;-28
2022/06/26 12:31:42;;;;;;;4.78;3.00;;;26.10;65.50;;;;;;5053017;28;20118;-28
2022/06/26 12:34:09;;;;;;;3.05;2.72;;;25.70;68.20;;;;;;5053108;28;20084;-29
2022/06/26 12:36:37;;;;;;;2.95;2.60;;;25.50;65.90;;;;;;5053196;28;20045;-29
2022/06/26 12:39:04;;;;;;;3.25;2.95;;;25.30;63.90;;;;;;5052598;28;20045;-29
2022/06/26 12:41:29;;;;;;;5.57;3.13;;;25.20;71.00;;;;;;5051994;28;20037;-29
2022/06/26 12:43:57;;;;;;;4.38;3.05;;;25.20;71.50;;;;;;5052253;28;20059;-29
2022/06/26 12:46:24;;;;;;;4.75;2.92;;;25.00;70.60;;;;;;5052697;28;20033;-28
2022/06/26 12:48:50;;;;;;;3.83;3.05;;;24.90;77.60;;;;;;5051417;28;20086;-28
2022/06/26 12:51:16;;;;;;;3.58;3.30;;;24.90;83.20;;;;;;5050631;28;20048;-29
2022/06/26 12:53:43;;;;;;;4.13;3.60;;;24.90;79.90;;;;;;5049106;28;20442;-29